sensor_id;sensor_type;location;lat;lon;timestamp;P1;durP1;ratioP1;P2;durP2;ratioP2
19329;SDS011;9799;48.214;16.388;2023-07-02T00:02:28;10.25;;;4.38;;
19329;SDS011;9799;48.214;16.388;2023-07-02T00:05:50;5.68;;;3.80;;
19329;SDS011;9799;48.214;16.388;2023-07-02T00:09:15;4.32;;;3.47;;
19329;SDS011;9799;48.214;16.388;2023-07-02T00:12:36;4.88;;;2.95;;
19329;SDS011;9799;48.214;16.388;2023-07-02T00:15:57;4.97;;;3.30;;
19329;SDS011;9799;48.214;16.388;2023-07-02T00:19:19;5.43;;;3.88;;
19329;SDS011;9799;48.214;16.388;2023-07-02T00:22:40;3.53;;;3.22;;
19329;SDS011;9799;48.214;16.388;2023-07-02T00:26:06;3.97;;;3.50;;
19329;SDS011;9799;48.214;16.388;2023-07-02T00:29:27;3.88;;;3.47;;
19329;SDS011;9799;48.214;16.388;2023-07-02T00:32:48;3.92;;;3.40;;
19329;SDS011;9799;48.214;16.388;2023-07-02T00:36:09;3.92;;;3.55;;
19329;SDS011;9799;48.214;16.388;2023-07-02T00:39:33;3.40;;;2.90;;
19329;SDS011;9799;48.214;16.388;2023-07-02T00:42:56;4.82;;;3.63;;
19329;SDS011;9799;48.214;16.388;2023-07-02T00:46:17;5.35;;;3.72;;
19329;SDS011;9799;48.214;16.388;2023-07-02T00:49:39;3.17;;;2.88;;
19329;SDS011;9799;48.214;16.388;2023-07-02T00:53:00;3.20;;;2.90;;
19329;SDS011;9799;48.214;16.388;2023-07-02T00:56:22;3.55;;;3.25;;
19329;SDS011;9799;48.214;16.388;2023-07-02T00:59:44;4.53;;;3.85;;
19329;SDS011;9799;48.214;16.388;2023-07-02T01:03:06;4.40;;;3.40;;
19329;SDS011;9799;48.214;16.388;2023-07-02T01:06:28;4.65;;;3.83;;
19329;SDS011;9799;48.214;16.388;2023-07-02T01:09:51;4.07;;;3.38;;
19329;SDS011;9799;48.214;16.388;2023-07-02T01:13:14;4.40;;;3.55;;
19329;SDS011;9799;48.214;16.388;2023-07-02T01:16:41;3.85;;;3.38;;
19329;SDS011;9799;48.214;16.388;2023-07-02T01:20:05;3.22;;;2.92;;
19329;SDS011;9799;48.214;16.388;2023-07-02T01:23:28;3.55;;;3.25;;
19329;SDS011;9799;48.214;16.388;2023-07-02T01:26:49;5.03;;;2.90;;
19329;SDS011;9799;48.214;16.388;2023-07-02T01:30:11;3.20;;;2.90;;
19329;SDS011;9799;48.214;16.388;2023-07-02T01:33:32;5.97;;;3.05;;
19329;SDS011;9799;48.214;16.388;2023-07-02T01:36:55;2.80;;;2.60;;
19329;SDS011;9799;48.214;16.388;2023-07-02T01:40:16;4.18;;;3.50;;
19329;SDS011;9799;48.214;16.388;2023-07-02T01:43:37;3.85;;;3.55;;
19329;SDS011;9799;48.214;16.388;2023-07-02T01:46:58;3.58;;;3.28;;
19329;SDS011;9799;48.214;16.388;2023-07-02T01:50:19;4.30;;;3.42;;
19329;SDS011;9799;48.214;16.388;2023-07-02T01:53:42;3.90;;;3.50;;
19329;SDS011;9799;48.214;16.388;2023-07-02T01:57:03;3.97;;;3.58;;
19329;SDS011;9799;48.214;16.388;2023-07-02T02:00:25;4.05;;;3.20;;
19329;SDS011;9799;48.214;16.388;2023-07-02T02:03:46;4.05;;;3.50;;
19329;SDS011;9799;48.214;16.388;2023-07-02T02:07:07;3.88;;;3.40;;
19329;SDS011;9799;48.214;16.388;2023-07-02T02:10:30;3.80;;;3.30;;
19329;SDS011;9799;48.214;16.388;2023-07-02T02:13:51;3.60;;;3.30;;
19329;SDS011;9799;48.214;16.388;2023-07-02T02:17:12;3.97;;;3.53;;
19329;SDS011;9799;48.214;16.388;2023-07-02T02:20:34;4.50;;;3.65;;
19329;SDS011;9799;48.214;16.388;2023-07-02T02:23:55;4.78;;;3.40;;
19329;SDS011;9799;48.214;16.388;2023-07-02T02:27:18;4.13;;;3.53;;
19329;SDS011;9799;48.214;16.388;2023-07-02T02:30:38;4.15;;;3.05;;
19329;SDS011;9799;48.214;16.388;2023-07-02T02:34:00;3.83;;;3.53;;
19329;SDS011;9799;48.214;16.388;2023-07-02T02:37:21;5.57;;;3.50;;
19329;SDS011;9799;48.214;16.388;2023-07-02T02:40:42;4.78;;;3.50;;
19329;SDS011;9799;48.214;16.388;2023-07-02T02:44:05;4.82;;;3.67;;
19329;SDS011;9799;48.214;16.388;2023-07-02T02:47:26;3.75;;;3.45;;
19329;SDS011;9799;48.214;16.388;2023-07-02T02:50:47;3.90;;;3.50;;
19329;SDS011;9799;48.214;16.388;2023-07-02T02:54:09;9.15;;;3.70;;
19329;SDS011;9799;48.214;16.388;2023-07-02T02:57:30;4.57;;;3.70;;
19329;SDS011;9799;48.214;16.388;2023-07-02T03:00:52;4.10;;;3.80;;
19329;SDS011;9799;48.214;16.388;2023-07-02T03:04:13;4.35;;;3.85;;
19329;SDS011;9799;48.214;16.388;2023-07-02T03:07:35;5.55;;;4.60;;
19329;SDS011;9799;48.214;16.388;2023-07-02T03:10:56;6.32;;;5.03;;
19329;SDS011;9799;48.214;16.388;2023-07-02T03:14:17;5.30;;;4.80;;
19329;SDS011;9799;48.214;16.388;2023-07-02T03:17:39;6.45;;;4.25;;
19329;SDS011;9799;48.214;16.388;2023-07-02T03:21:00;6.53;;;4.38;;
19329;SDS011;9799;48.214;16.388;2023-07-02T03:24:21;4.70;;;4.30;;
19329;SDS011;9799;48.214;16.388;2023-07-02T03:27:43;4.03;;;3.50;;
19329;SDS011;9799;48.214;16.388;2023-07-02T03:31:04;4.88;;;4.30;;
19329;SDS011;9799;48.214;16.388;2023-07-02T03:34:26;4.60;;;4.03;;
19329;SDS011;9799;48.214;16.388;2023-07-02T03:37:47;4.07;;;3.30;;
19329;SDS011;9799;48.214;16.388;2023-07-02T03:41:09;4.80;;;3.75;;
19329;SDS011;9799;48.214;16.388;2023-07-02T03:44:30;5.00;;;4.22;;
19329;SDS011;9799;48.214;16.388;2023-07-02T03:47:51;6.68;;;3.85;;
19329;SDS011;9799;48.214;16.388;2023-07-02T03:51:13;4.55;;;4.05;;
19329;SDS011;9799;48.214;16.388;2023-07-02T03:54:35;5.03;;;4.22;;
19329;SDS011;9799;48.214;16.388;2023-07-02T03:57:56;5.25;;;3.70;;
19329;SDS011;9799;48.214;16.388;2023-07-02T04:01:17;6.30;;;4.30;;
19329;SDS011;9799;48.214;16.388;2023-07-02T04:04:38;7.82;;;3.35;;
19329;SDS011;9799;48.214;16.388;2023-07-02T04:08:01;4.10;;;3.70;;
19329;SDS011;9799;48.214;16.388;2023-07-02T04:11:22;4.45;;;3.97;;
19329;SDS011;9799;48.214;16.388;2023-07-02T04:14:43;6.35;;;4.28;;
19329;SDS011;9799;48.214;16.388;2023-07-02T04:18:04;3.97;;;3.65;;
19329;SDS011;9799;48.214;16.388;2023-07-02T04:21:26;4.32;;;3.92;;
19329;SDS011;9799;48.214;16.388;2023-07-02T04:24:48;5.20;;;4.57;;
19329;SDS011;9799;48.214;16.388;2023-07-02T04:28:10;4.63;;;4.20;;
19329;SDS011;9799;48.214;16.388;2023-07-02T04:31:30;4.65;;;3.97;;
19329;SDS011;9799;48.214;16.388;2023-07-02T04:34:52;4.32;;;3.92;;
19329;SDS011;9799;48.214;16.388;2023-07-02T04:38:13;4.95;;;4.25;;
19329;SDS011;9799;48.214;16.388;2023-07-02T04:41:35;6.90;;;4.68;;
19329;SDS011;9799;48.214;16.388;2023-07-02T04:44:56;6.78;;;4.22;;
19329;SDS011;9799;48.214;16.388;2023-07-02T04:48:22;4.57;;;3.97;;
19329;SDS011;9799;48.214;16.388;2023-07-02T04:51:43;4.53;;;4.10;;
19329;SDS011;9799;48.214;16.388;2023-07-02T04:55:05;5.55;;;4.07;;
19329;SDS011;9799;48.214;16.388;2023-07-02T04:58:27;6.80;;;3.47;;
19329;SDS011;9799;48.214;16.388;2023-07-02T05:01:49;3.42;;;3.15;;
19329;SDS011;9799;48.214;16.388;2023-07-02T05:05:10;4.40;;;3.60;;
19329;SDS011;9799;48.214;16.388;2023-07-02T05:08:31;4.30;;;3.22;;
19329;SDS011;9799;48.214;16.388;2023-07-02T05:11:52;3.60;;;3.30;;
19329;SDS011;9799;48.214;16.388;2023-07-02T05:15:15;3.65;;;3.35;;
19329;SDS011;9799;48.214;16.388;2023-07-02T05:18:36;3.15;;;2.85;;
19329;SDS011;9799;48.214;16.388;2023-07-02T05:21:57;4.20;;;2.85;;
19329;SDS011;9799;48.214;16.388;2023-07-02T05:25:18;5.13;;;3.47;;
19329;SDS011;9799;48.214;16.388;2023-07-02T05:28:40;3.65;;;3.20;;
19329;SDS011;9799;48.214;16.388;2023-07-02T05:32:02;3.58;;;3.05;;
19329;SDS011;9799;48.214;16.388;2023-07-02T05:35:24;4.00;;;2.38;;
19329;SDS011;9799;48.214;16.388;2023-07-02T05:38:45;3.45;;;3.08;;
19329;SDS011;9799;48.214;16.388;2023-07-02T05:42:06;4.43;;;3.63;;
19329;SDS011;9799;48.214;16.388;2023-07-02T05:45:27;3.22;;;2.92;;
19329;SDS011;9799;48.214;16.388;2023-07-02T05:48:50;2.80;;;2.60;;
19329;SDS011;9799;48.214;16.388;2023-07-02T05:52:15;6.00;;;3.63;;
19329;SDS011;9799;48.214;16.388;2023-07-02T05:55:36;4.63;;;3.33;;
19329;SDS011;9799;48.214;16.388;2023-07-02T05:58:57;4.78;;;3.97;;
19329;SDS011;9799;48.214;16.388;2023-07-02T06:02:19;3.97;;;3.40;;
19329;SDS011;9799;48.214;16.388;2023-07-02T06:05:41;4.22;;;3.58;;
19329;SDS011;9799;48.214;16.388;2023-07-02T06:09:02;5.38;;;4.35;;
19329;SDS011;9799;48.214;16.388;2023-07-02T06:12:23;3.80;;;3.50;;
19329;SDS011;9799;48.214;16.388;2023-07-02T06:15:45;4.53;;;4.13;;
19329;SDS011;9799;48.214;16.388;2023-07-02T06:19:06;5.60;;;3.95;;
19329;SDS011;9799;48.214;16.388;2023-07-02T06:22:29;5.00;;;3.72;;
19329;SDS011;9799;48.214;16.388;2023-07-02T06:25:50;4.57;;;4.18;;
19329;SDS011;9799;48.214;16.388;2023-07-02T06:29:18;5.07;;;3.55;;
19329;SDS011;9799;48.214;16.388;2023-07-02T06:32:39;4.28;;;3.88;;
19329;SDS011;9799;48.214;16.388;2023-07-02T06:36:00;4.47;;;4.07;;
19329;SDS011;9799;48.214;16.388;2023-07-02T06:39:22;3.65;;;3.35;;
19329;SDS011;9799;48.214;16.388;2023-07-02T06:42:44;4.22;;;3.85;;
19329;SDS011;9799;48.214;16.388;2023-07-02T06:46:05;3.95;;;3.65;;
19329;SDS011;9799;48.214;16.388;2023-07-02T06:49:26;6.05;;;3.65;;
19329;SDS011;9799;48.214;16.388;2023-07-02T06:52:47;4.82;;;3.90;;
19329;SDS011;9799;48.214;16.388;2023-07-02T06:56:10;3.65;;;3.35;;
19329;SDS011;9799;48.214;16.388;2023-07-02T06:59:31;4.25;;;3.85;;
19329;SDS011;9799;48.214;16.388;2023-07-02T07:02:52;4.00;;;3.58;;
19329;SDS011;9799;48.214;16.388;2023-07-02T07:06:14;3.67;;;3.45;;
19329;SDS011;9799;48.214;16.388;2023-07-02T07:09:35;3.80;;;3.50;;
19329;SDS011;9799;48.214;16.388;2023-07-02T07:12:57;3.47;;;3.17;;
19329;SDS011;9799;48.214;16.388;2023-07-02T07:16:18;3.80;;;3.50;;
19329;SDS011;9799;48.214;16.388;2023-07-02T07:19:40;3.40;;;3.10;;
19329;SDS011;9799;48.214;16.388;2023-07-02T07:23:01;3.55;;;3.25;;
19329;SDS011;9799;48.214;16.388;2023-07-02T07:26:23;5.93;;;3.33;;
19329;SDS011;9799;48.214;16.388;2023-07-02T07:29:45;3.70;;;3.40;;
19329;SDS011;9799;48.214;16.388;2023-07-02T07:33:07;3.47;;;3.17;;
19329;SDS011;9799;48.214;16.388;2023-07-02T07:36:28;4.35;;;3.17;;
19329;SDS011;9799;48.214;16.388;2023-07-02T07:39:49;3.38;;;3.13;;
19329;SDS011;9799;48.214;16.388;2023-07-02T07:43:10;3.60;;;3.30;;
19329;SDS011;9799;48.214;16.388;2023-07-02T07:46:33;3.60;;;3.30;;
19329;SDS011;9799;48.214;16.388;2023-07-02T07:49:54;3.70;;;3.40;;
19329;SDS011;9799;48.214;16.388;2023-07-02T07:53:15;4.47;;;3.30;;
19329;SDS011;9799;48.214;16.388;2023-07-02T07:56:36;4.03;;;3.72;;
19329;SDS011;9799;48.214;16.388;2023-07-02T07:59:57;3.70;;;3.40;;
19329;SDS011;9799;48.214;16.388;2023-07-02T08:03:20;3.97;;;3.58;;
19329;SDS011;9799;48.214;16.388;2023-07-02T08:06:56;3.75;;;3.42;;
19329;SDS011;9799;48.214;16.388;2023-07-02T08:10:17;5.03;;;4.15;;
19329;SDS011;9799;48.214;16.388;2023-07-02T08:13:38;3.60;;;3.30;;
19329;SDS011;9799;48.214;16.388;2023-07-02T08:16:59;4.22;;;3.83;;
19329;SDS011;9799;48.214;16.388;2023-07-02T08:20:22;4.57;;;4.15;;
19329;SDS011;9799;48.214;16.388;2023-07-02T08:23:43;6.00;;;5.45;;
19329;SDS011;9799;48.214;16.388;2023-07-02T08:27:04;4.88;;;4.40;;
19329;SDS011;9799;48.214;16.388;2023-07-02T08:30:26;4.32;;;3.95;;
19329;SDS011;9799;48.214;16.388;2023-07-02T08:33:47;5.07;;;4.53;;
19329;SDS011;9799;48.214;16.388;2023-07-02T08:37:10;4.10;;;3.80;;
19329;SDS011;9799;48.214;16.388;2023-07-02T08:40:31;4.38;;;4.07;;
19329;SDS011;9799;48.214;16.388;2023-07-02T08:47:15;4.18;;;3.88;;
19329;SDS011;9799;48.214;16.388;2023-07-02T08:50:37;3.80;;;3.50;;
19329;SDS011;9799;48.214;16.388;2023-07-02T08:53:59;4.93;;;4.53;;
19329;SDS011;9799;48.214;16.388;2023-07-02T08:57:21;4.82;;;4.43;;
19329;SDS011;9799;48.214;16.388;2023-07-02T09:00:52;4.70;;;4.22;;
19329;SDS011;9799;48.214;16.388;2023-07-02T09:04:25;4.35;;;3.95;;
19329;SDS011;9799;48.214;16.388;2023-07-02T09:07:48;4.13;;;3.83;;
19329;SDS011;9799;48.214;16.388;2023-07-02T09:11:12;4.57;;;4.18;;
19329;SDS011;9799;48.214;16.388;2023-07-02T09:14:34;5.50;;;4.43;;
19329;SDS011;9799;48.214;16.388;2023-07-02T09:17:55;4.20;;;3.90;;
19329;SDS011;9799;48.214;16.388;2023-07-02T09:21:16;3.95;;;3.65;;
19329;SDS011;9799;48.214;16.388;2023-07-02T09:24:38;4.80;;;4.40;;
19329;SDS011;9799;48.214;16.388;2023-07-02T09:28:00;4.18;;;3.85;;
19329;SDS011;9799;48.214;16.388;2023-07-02T09:31:21;4.22;;;3.67;;
19329;SDS011;9799;48.214;16.388;2023-07-02T09:34:42;4.05;;;3.75;;
19329;SDS011;9799;48.214;16.388;2023-07-02T09:38:03;4.28;;;3.88;;
19329;SDS011;9799;48.214;16.388;2023-07-02T09:41:25;4.75;;;4.30;;
19329;SDS011;9799;48.214;16.388;2023-07-02T09:44:48;4.25;;;3.92;;
19329;SDS011;9799;48.214;16.388;2023-07-02T09:48:12;3.92;;;3.63;;
19329;SDS011;9799;48.214;16.388;2023-07-02T09:51:35;4.20;;;3.80;;
19329;SDS011;9799;48.214;16.388;2023-07-02T09:54:56;4.32;;;3.90;;
19329;SDS011;9799;48.214;16.388;2023-07-02T09:58:17;4.70;;;3.63;;
19329;SDS011;9799;48.214;16.388;2023-07-02T10:01:40;4.20;;;3.80;;
19329;SDS011;9799;48.214;16.388;2023-07-02T10:05:01;4.50;;;3.55;;
19329;SDS011;9799;48.214;16.388;2023-07-02T10:08:24;4.68;;;3.85;;
19329;SDS011;9799;48.214;16.388;2023-07-02T10:11:49;4.45;;;4.05;;
19329;SDS011;9799;48.214;16.388;2023-07-02T10:15:10;4.43;;;3.50;;
19329;SDS011;9799;48.214;16.388;2023-07-02T10:18:33;3.70;;;3.30;;
19329;SDS011;9799;48.214;16.388;2023-07-02T10:22:01;3.80;;;3.40;;
19329;SDS011;9799;48.214;16.388;2023-07-02T10:25:26;3.88;;;3.58;;
19329;SDS011;9799;48.214;16.388;2023-07-02T10:28:57;4.30;;;3.50;;
19329;SDS011;9799;48.214;16.388;2023-07-02T10:32:25;13.32;;;3.55;;
19329;SDS011;9799;48.214;16.388;2023-07-02T10:35:49;4.10;;;3.75;;
19329;SDS011;9799;48.214;16.388;2023-07-02T10:39:11;4.63;;;4.18;;
19329;SDS011;9799;48.214;16.388;2023-07-02T10:42:32;4.85;;;4.32;;
19329;SDS011;9799;48.214;16.388;2023-07-02T10:45:53;4.85;;;4.45;;
19329;SDS011;9799;48.214;16.388;2023-07-02T10:49:17;5.07;;;4.57;;
19329;SDS011;9799;48.214;16.388;2023-07-02T10:52:41;3.97;;;3.65;;
19329;SDS011;9799;48.214;16.388;2023-07-02T10:56:02;5.72;;;4.28;;
19329;SDS011;9799;48.214;16.388;2023-07-02T10:59:24;4.43;;;4.03;;
19329;SDS011;9799;48.214;16.388;2023-07-02T11:02:45;5.35;;;3.90;;
19329;SDS011;9799;48.214;16.388;2023-07-02T11:06:06;5.10;;;3.33;;
19329;SDS011;9799;48.214;16.388;2023-07-02T11:09:29;3.63;;;3.30;;
19329;SDS011;9799;48.214;16.388;2023-07-02T11:12:50;4.07;;;3.50;;
19329;SDS011;9799;48.214;16.388;2023-07-02T11:16:16;4.50;;;3.25;;
19329;SDS011;9799;48.214;16.388;2023-07-02T11:19:39;3.63;;;3.33;;
19329;SDS011;9799;48.214;16.388;2023-07-02T11:23:00;7.07;;;4.13;;
19329;SDS011;9799;48.214;16.388;2023-07-02T11:26:23;4.10;;;3.35;;
19329;SDS011;9799;48.214;16.388;2023-07-02T11:29:44;6.70;;;4.03;;
19329;SDS011;9799;48.214;16.388;2023-07-02T11:33:05;4.05;;;3.67;;
19329;SDS011;9799;48.214;16.388;2023-07-02T11:36:26;5.03;;;3.58;;
19329;SDS011;9799;48.214;16.388;2023-07-02T11:39:47;6.05;;;3.30;;
19329;SDS011;9799;48.214;16.388;2023-07-02T11:43:10;4.05;;;3.53;;
19329;SDS011;9799;48.214;16.388;2023-07-02T11:46:31;4.03;;;3.63;;
19329;SDS011;9799;48.214;16.388;2023-07-02T11:49:53;6.90;;;3.35;;
19329;SDS011;9799;48.214;16.388;2023-07-02T11:53:14;3.72;;;3.33;;
19329;SDS011;9799;48.214;16.388;2023-07-02T11:56:36;4.53;;;3.55;;
19329;SDS011;9799;48.214;16.388;2023-07-02T11:59:59;3.80;;;3.10;;
19329;SDS011;9799;48.214;16.388;2023-07-02T12:03:20;5.07;;;4.22;;
19329;SDS011;9799;48.214;16.388;2023-07-02T12:06:41;4.53;;;3.58;;
19329;SDS011;9799;48.214;16.388;2023-07-02T12:10:03;3.40;;;3.10;;
19329;SDS011;9799;48.214;16.388;2023-07-02T12:13:24;3.60;;;3.30;;
19329;SDS011;9799;48.214;16.388;2023-07-02T12:16:47;3.38;;;3.08;;
19329;SDS011;9799;48.214;16.388;2023-07-02T12:20:08;3.70;;;3.40;;
19329;SDS011;9799;48.214;16.388;2023-07-02T12:23:31;5.07;;;3.85;;
19329;SDS011;9799;48.214;16.388;2023-07-02T12:26:52;3.03;;;2.78;;
19329;SDS011;9799;48.214;16.388;2023-07-02T12:30:14;3.42;;;3.13;;
19329;SDS011;9799;48.214;16.388;2023-07-02T12:33:37;3.67;;;3.30;;
19329;SDS011;9799;48.214;16.388;2023-07-02T12:36:59;3.90;;;3.47;;
19329;SDS011;9799;48.214;16.388;2023-07-02T12:40:20;3.35;;;3.05;;
19329;SDS011;9799;48.214;16.388;2023-07-02T12:43:41;3.55;;;3.22;;
19329;SDS011;9799;48.214;16.388;2023-07-02T12:47:02;3.00;;;2.80;;
19329;SDS011;9799;48.214;16.388;2023-07-02T12:50:25;3.53;;;3.22;;
19329;SDS011;9799;48.214;16.388;2023-07-02T12:53:46;4.72;;;3.13;;
19329;SDS011;9799;48.214;16.388;2023-07-02T12:57:08;3.28;;;2.97;;
19329;SDS011;9799;48.214;16.388;2023-07-02T13:00:29;4.38;;;3.60;;
19329;SDS011;9799;48.214;16.388;2023-07-02T13:03:52;5.35;;;3.33;;
19329;SDS011;9799;48.214;16.388;2023-07-02T13:07:16;7.60;;;3.30;;
19329;SDS011;9799;48.214;16.388;2023-07-02T13:10:38;3.00;;;2.78;;
19329;SDS011;9799;48.214;16.388;2023-07-02T13:14:00;3.13;;;2.88;;
19329;SDS011;9799;48.214;16.388;2023-07-02T13:17:22;4.35;;;3.33;;
19329;SDS011;9799;48.214;16.388;2023-07-02T13:20:44;5.50;;;2.90;;
19329;SDS011;9799;48.214;16.388;2023-07-02T13:24:08;2.75;;;2.53;;
19329;SDS011;9799;48.214;16.388;2023-07-02T13:27:30;3.38;;;2.72;;
19329;SDS011;9799;48.214;16.388;2023-07-02T13:30:52;3.53;;;3.22;;
19329;SDS011;9799;48.214;16.388;2023-07-02T13:34:14;3.22;;;2.92;;
19329;SDS011;9799;48.214;16.388;2023-07-02T13:37:35;3.35;;;2.83;;
19329;SDS011;9799;48.214;16.388;2023-07-02T13:40:59;2.92;;;2.63;;
19329;SDS011;9799;48.214;16.388;2023-07-02T13:44:22;3.78;;;2.75;;
19329;SDS011;9799;48.214;16.388;2023-07-02T13:47:43;3.53;;;2.65;;
19329;SDS011;9799;48.214;16.388;2023-07-02T13:51:06;3.45;;;2.38;;
19329;SDS011;9799;48.214;16.388;2023-07-02T13:54:27;3.30;;;2.40;;
19329;SDS011;9799;48.214;16.388;2023-07-02T13:57:51;5.22;;;2.60;;
19329;SDS011;9799;48.214;16.388;2023-07-02T14:01:14;2.20;;;2.10;;
19329;SDS011;9799;48.214;16.388;2023-07-02T14:04:36;2.80;;;2.33;;
19329;SDS011;9799;48.214;16.388;2023-07-02T14:07:58;2.42;;;2.22;;
19329;SDS011;9799;48.214;16.388;2023-07-02T14:11:20;1.95;;;1.80;;
19329;SDS011;9799;48.214;16.388;2023-07-02T14:14:43;2.53;;;2.10;;
19329;SDS011;9799;48.214;16.388;2023-07-02T14:18:07;2.72;;;2.20;;
19329;SDS011;9799;48.214;16.388;2023-07-02T14:21:29;3.97;;;2.17;;
19329;SDS011;9799;48.214;16.388;2023-07-02T14:24:51;2.50;;;2.25;;
19329;SDS011;9799;48.214;16.388;2023-07-02T14:28:13;3.15;;;1.88;;
19329;SDS011;9799;48.214;16.388;2023-07-02T14:31:34;2.28;;;2.08;;
19329;SDS011;9799;48.214;16.388;2023-07-02T14:34:57;4.10;;;2.70;;
19329;SDS011;9799;48.214;16.388;2023-07-02T14:38:20;3.50;;;2.63;;
19329;SDS011;9799;48.214;16.388;2023-07-02T14:41:42;3.28;;;2.65;;
19329;SDS011;9799;48.214;16.388;2023-07-02T14:45:05;2.30;;;2.00;;
19329;SDS011;9799;48.214;16.388;2023-07-02T14:48:27;2.22;;;2.03;;
19329;SDS011;9799;48.214;16.388;2023-07-02T14:51:50;2.58;;;2.38;;
19329;SDS011;9799;48.214;16.388;2023-07-02T14:55:11;2.25;;;2.05;;
19329;SDS011;9799;48.214;16.388;2023-07-02T14:58:32;3.25;;;2.63;;
19329;SDS011;9799;48.214;16.388;2023-07-02T15:01:54;4.75;;;3.05;;
19329;SDS011;9799;48.214;16.388;2023-07-02T15:05:15;3.00;;;2.10;;
19329;SDS011;9799;48.214;16.388;2023-07-02T15:08:38;2.92;;;2.60;;
19329;SDS011;9799;48.214;16.388;2023-07-02T15:12:00;2.63;;;2.35;;
19329;SDS011;9799;48.214;16.388;2023-07-02T15:15:21;2.97;;;2.78;;
19329;SDS011;9799;48.214;16.388;2023-07-02T15:18:42;3.33;;;2.40;;
19329;SDS011;9799;48.214;16.388;2023-07-02T15:22:03;3.22;;;2.92;;
19329;SDS011;9799;48.214;16.388;2023-07-02T15:25:26;3.00;;;2.70;;
19329;SDS011;9799;48.214;16.388;2023-07-02T15:28:47;3.35;;;3.05;;
19329;SDS011;9799;48.214;16.388;2023-07-02T15:32:08;3.20;;;2.90;;
19329;SDS011;9799;48.214;16.388;2023-07-02T15:35:29;3.63;;;2.95;;
19329;SDS011;9799;48.214;16.388;2023-07-02T15:38:50;3.10;;;2.80;;
19329;SDS011;9799;48.214;16.388;2023-07-02T15:42:13;3.42;;;2.70;;
19329;SDS011;9799;48.214;16.388;2023-07-02T15:45:34;3.00;;;2.70;;
19329;SDS011;9799;48.214;16.388;2023-07-02T15:48:57;4.05;;;2.60;;
19329;SDS011;9799;48.214;16.388;2023-07-02T15:52:20;4.25;;;3.00;;
19329;SDS011;9799;48.214;16.388;2023-07-02T15:55:41;3.38;;;2.65;;
19329;SDS011;9799;48.214;16.388;2023-07-02T15:59:04;6.32;;;2.70;;
19329;SDS011;9799;48.214;16.388;2023-07-02T16:02:25;3.42;;;3.13;;
19329;SDS011;9799;48.214;16.388;2023-07-02T16:05:47;4.78;;;3.22;;
19329;SDS011;9799;48.214;16.388;2023-07-02T16:09:08;6.50;;;3.33;;
19329;SDS011;9799;48.214;16.388;2023-07-02T16:12:30;3.60;;;2.80;;
19329;SDS011;9799;48.214;16.388;2023-07-02T16:15:52;4.85;;;3.70;;
19329;SDS011;9799;48.214;16.388;2023-07-02T16:19:14;4.57;;;3.40;;
19329;SDS011;9799;48.214;16.388;2023-07-02T16:22:36;4.18;;;3.67;;
19329;SDS011;9799;48.214;16.388;2023-07-02T16:25:57;4.90;;;3.63;;
19329;SDS011;9799;48.214;16.388;2023-07-02T16:29:21;4.40;;;3.28;;
19329;SDS011;9799;48.214;16.388;2023-07-02T16:32:45;4.35;;;3.40;;
19329;SDS011;9799;48.214;16.388;2023-07-02T16:36:07;4.05;;;3.63;;
19329;SDS011;9799;48.214;16.388;2023-07-02T16:39:30;4.30;;;3.90;;
19329;SDS011;9799;48.214;16.388;2023-07-02T16:42:51;4.22;;;3.67;;
19329;SDS011;9799;48.214;16.388;2023-07-02T16:46:12;6.50;;;3.58;;
19329;SDS011;9799;48.214;16.388;2023-07-02T16:49:35;8.60;;;4.30;;
19329;SDS011;9799;48.214;16.388;2023-07-02T16:52:57;7.85;;;4.45;;
19329;SDS011;9799;48.214;16.388;2023-07-02T16:56:19;5.55;;;4.25;;
19329;SDS011;9799;48.214;16.388;2023-07-02T16:59:40;6.85;;;4.20;;
19329;SDS011;9799;48.214;16.388;2023-07-02T17:03:02;4.63;;;3.85;;
19329;SDS011;9799;48.214;16.388;2023-07-02T17:06:25;4.18;;;3.75;;
19329;SDS011;9799;48.214;16.388;2023-07-02T17:09:46;4.55;;;4.15;;
19329;SDS011;9799;48.214;16.388;2023-07-02T17:13:08;4.78;;;4.13;;
19329;SDS011;9799;48.214;16.388;2023-07-02T17:16:31;5.53;;;4.85;;
19329;SDS011;9799;48.214;16.388;2023-07-02T17:19:53;7.88;;;4.40;;
19329;SDS011;9799;48.214;16.388;2023-07-02T17:23:17;4.95;;;4.18;;
19329;SDS011;9799;48.214;16.388;2023-07-02T17:26:39;5.95;;;4.57;;
19329;SDS011;9799;48.214;16.388;2023-07-02T17:30:03;5.28;;;4.60;;
19329;SDS011;9799;48.214;16.388;2023-07-02T17:33:27;6.10;;;4.85;;
19329;SDS011;9799;48.214;16.388;2023-07-02T17:36:49;5.38;;;4.55;;
19329;SDS011;9799;48.214;16.388;2023-07-02T17:40:12;5.18;;;4.63;;
19329;SDS011;9799;48.214;16.388;2023-07-02T17:43:34;5.45;;;4.95;;
19329;SDS011;9799;48.214;16.388;2023-07-02T17:46:55;5.95;;;4.90;;
19329;SDS011;9799;48.214;16.388;2023-07-02T17:50:19;6.43;;;5.00;;
19329;SDS011;9799;48.214;16.388;2023-07-02T17:53:41;5.28;;;4.55;;
19329;SDS011;9799;48.214;16.388;2023-07-02T17:57:07;6.05;;;4.75;;
19329;SDS011;9799;48.214;16.388;2023-07-02T18:00:30;5.05;;;4.57;;
19329;SDS011;9799;48.214;16.388;2023-07-02T18:03:51;5.63;;;5.00;;
19329;SDS011;9799;48.214;16.388;2023-07-02T18:07:15;5.63;;;5.10;;
19329;SDS011;9799;48.214;16.388;2023-07-02T18:10:39;6.13;;;5.53;;
19329;SDS011;9799;48.214;16.388;2023-07-02T18:14:02;6.28;;;5.30;;
19329;SDS011;9799;48.214;16.388;2023-07-02T18:17:26;6.95;;;5.30;;
19329;SDS011;9799;48.214;16.388;2023-07-02T18:20:47;10.13;;;5.65;;
19329;SDS011;9799;48.214;16.388;2023-07-02T18:24:10;7.10;;;4.95;;
19329;SDS011;9799;48.214;16.388;2023-07-02T18:27:32;5.90;;;5.30;;
19329;SDS011;9799;48.214;16.388;2023-07-02T18:30:55;6.07;;;5.00;;
19329;SDS011;9799;48.214;16.388;2023-07-02T18:34:16;6.78;;;5.88;;
19329;SDS011;9799;48.214;16.388;2023-07-02T18:37:39;6.28;;;5.45;;
19329;SDS011;9799;48.214;16.388;2023-07-02T18:41:03;8.38;;;4.93;;
19329;SDS011;9799;48.214;16.388;2023-07-02T18:44:27;5.35;;;4.82;;
19329;SDS011;9799;48.214;16.388;2023-07-02T18:47:55;5.68;;;5.10;;
19329;SDS011;9799;48.214;16.388;2023-07-02T18:51:17;6.05;;;5.20;;
19329;SDS011;9799;48.214;16.388;2023-07-02T18:54:39;6.40;;;5.75;;
19329;SDS011;9799;48.214;16.388;2023-07-02T18:58:03;6.38;;;5.55;;
19329;SDS011;9799;48.214;16.388;2023-07-02T19:01:26;6.72;;;5.47;;
19329;SDS011;9799;48.214;16.388;2023-07-02T19:04:50;6.07;;;5.47;;
19329;SDS011;9799;48.214;16.388;2023-07-02T19:08:13;7.65;;;5.65;;
19329;SDS011;9799;48.214;16.388;2023-07-02T19:11:35;7.75;;;5.65;;
19329;SDS011;9799;48.214;16.388;2023-07-02T19:14:57;7.50;;;6.45;;
19329;SDS011;9799;48.214;16.388;2023-07-02T19:18:19;7.03;;;6.25;;
19329;SDS011;9799;48.214;16.388;2023-07-02T19:21:43;9.82;;;6.32;;
19329;SDS011;9799;48.214;16.388;2023-07-02T19:25:05;7.25;;;5.68;;
19329;SDS011;9799;48.214;16.388;2023-07-02T19:28:30;7.70;;;5.78;;
19329;SDS011;9799;48.214;16.388;2023-07-02T19:31:52;6.88;;;6.10;;
19329;SDS011;9799;48.214;16.388;2023-07-02T19:35:15;8.75;;;6.28;;
19329;SDS011;9799;48.214;16.388;2023-07-02T19:38:39;7.88;;;6.38;;
19329;SDS011;9799;48.214;16.388;2023-07-02T19:42:00;7.65;;;5.82;;
19329;SDS011;9799;48.214;16.388;2023-07-02T19:45:23;6.82;;;6.13;;
19329;SDS011;9799;48.214;16.388;2023-07-02T19:48:45;8.68;;;6.32;;
19329;SDS011;9799;48.214;16.388;2023-07-02T19:52:08;6.18;;;5.57;;
19329;SDS011;9799;48.214;16.388;2023-07-02T19:55:32;7.82;;;6.30;;
19329;SDS011;9799;48.214;16.388;2023-07-02T19:58:57;8.38;;;6.57;;
19329;SDS011;9799;48.214;16.388;2023-07-02T20:02:19;8.07;;;6.57;;
19329;SDS011;9799;48.214;16.388;2023-07-02T20:05:42;7.88;;;6.68;;
19329;SDS011;9799;48.214;16.388;2023-07-02T20:09:04;12.27;;;6.28;;
19329;SDS011;9799;48.214;16.388;2023-07-02T20:12:27;10.95;;;7.45;;
19329;SDS011;9799;48.214;16.388;2023-07-02T20:15:49;8.88;;;6.70;;
19329;SDS011;9799;48.214;16.388;2023-07-02T20:19:16;8.75;;;6.90;;
19329;SDS011;9799;48.214;16.388;2023-07-02T20:22:39;6.70;;;5.88;;